Airfield :
LOGIN :

Register | Disclaimer

   EN    FR    IT 

 










Legend :    VFR   Marginal VFR   IFR   Intensive IFR   Very Intensive IFR
Visi :
Ceiling :
>= 8 km
>= 3000ft
5 to 8 km
1000 to 3000 ft
1500m to 5 km
500 to 1000 ft
800 to 1500m
200 to 500 ft
< 800m
< 200 ft
Symbols :   Thunderstorms  Fog  Heavy snow  Heavy precipitations  Wind > 20 kt
SIGMETs :     Misc.  Thunderstorms  Icing  Turbulence  Mountain Waves  Volcanic Ashes







- Airport Elevation : 1455 ft


ETIH - Hohenfels Army Air Field

CURRENT METAR :
  • 250931Z AUTO 27003KT 9999 BKN031 OVC045 16/10 A3019 RMK AO2 SLP220 $

EXPIRED METARs :
  • 250919Z AUTO 00000KT 9999 BKN029 BKN042 OVC065 15/10 A3019 RMK AO2 CIG 029V043 SLP220 $
  • 250856Z AUTO 36003KT 9999 FEW039 OVC065 16/11 A3019 RMK AO2 SLP218 T01570107 52008 $
  • 250838Z AUTO 00000KT 9999 SCT026 OVC055 15/10 A3018 RMK AO2 SLP216 $
  • 250814Z AUTO 24003KT 9999 BKN026 OVC060 16/10 A3018 RMK AO2 CIG 026V060 BKN V SCT SLP214 $
  • 250756Z AUTO 00000KT 9999 FEW023 SCT037 BKN045 OVC060 15/10 A3018 RMK AO2 SLP216 T01470103 $
  • 250741Z AUTO 30004KT 9999 SCT023 BKN036 OVC046 15/10 A3018 RMK AO2 SLP216 $
  • 250656Z AUTO 04004KT 9999 OVC020 15/11 A3017 RMK AO2 OVC V BKN SLP213 T01510107 $

Expired Forecast.
No reported NOTAMs for that airfield.



MET'MAP, your aeronautical weather chart ! - Copyright ORBIFLY December 2007 - Disclaimer

ORBIFLY MET'MAP TEAM :

Programming & Development : Alexandra Zaïnal
Concept & Development : Baudouin d'Aumeries
Co-Development & Prog : Marc-Olivier Méhu
Technical & hardware support : Manuel Goepfert

Contact : metmap@orbifly.com




SOURCES & CREDITS :

   NOAA